createdAt,value
2023-04-04T00:00:42.737Z,97201.21
2023-04-04T00:03:16.561Z,97201.52
2023-04-04T00:05:45.578Z,97203.89
2023-04-04T00:08:13.528Z,97207.94
2023-04-04T00:10:41.579Z,97209.23
2023-04-04T00:13:09.957Z,97209.82
2023-04-04T00:15:37.822Z,97210.48
2023-04-04T00:18:06.288Z,97214.54
2023-04-04T00:20:34.276Z,97215.05
2023-04-04T00:23:02.139Z,97217.33
2023-04-04T00:25:30.006Z,97216.15
2023-04-04T00:28:01.135Z,97219.29
2023-04-04T00:30:32.342Z,97224.43
2023-04-04T00:33:02.368Z,97223.42
2023-04-04T00:35:30.448Z,97222.27
2023-04-04T00:37:58.383Z,97227.84
2023-04-04T00:40:26.761Z,97228.55
2023-04-04T00:42:54.828Z,97224.51
2023-04-04T00:45:22.934Z,97225.52
2023-04-04T00:47:51.811Z,97229.36
2023-04-04T00:50:19.870Z,97227.86
2023-04-04T00:52:47.912Z,97226.98
2023-04-04T00:55:16.607Z,97222.21
2023-04-04T00:57:45.825Z,97218.10
2023-04-04T01:00:14.612Z,97213.80
2023-04-04T01:02:42.688Z,97210.69
2023-04-04T01:05:11.681Z,97207.91
2023-04-04T01:07:40.850Z,97210.55
2023-04-04T01:10:09.240Z,97207.36
2023-04-04T01:12:37.426Z,97209.45
2023-04-04T01:15:06.219Z,97209.14
2023-04-04T01:17:34.405Z,97205.99
2023-04-04T01:20:05.644Z,97210.21
2023-04-04T01:22:41.159Z,97209.02
2023-04-04T01:25:09.565Z,97212.33
2023-04-04T01:27:40.812Z,97217.12
2023-04-04T01:30:16.746Z,97220.11
2023-04-04T01:32:52.358Z,97226.78
2023-04-04T01:35:31.130Z,97225.14
2023-04-04T01:38:11.283Z,97221.52
2023-04-04T01:40:42.120Z,97218.69
2023-04-04T01:43:10.280Z,97222.05
2023-04-04T01:45:40.995Z,97220.47
2023-04-04T01:48:12.587Z,97215.50
2023-04-04T01:50:42.170Z,97215.44
2023-04-04T01:53:10.535Z,97210.44
2023-04-04T01:55:38.439Z,97206.32
2023-04-04T01:58:06.824Z,97205.51
2023-04-04T02:00:34.768Z,97204.17
2023-04-04T02:03:04.236Z,97201.24
2023-04-04T02:05:32.232Z,97199.74
2023-04-04T02:08:00.755Z,97200.06
2023-04-04T02:10:35.574Z,97201.08
2023-04-04T02:13:03.652Z,97199.17
2023-04-04T02:15:31.478Z,97202.95
2023-04-04T02:18:01.781Z,97200.94
2023-04-04T02:20:30.011Z,97203.41
2023-04-04T02:22:57.998Z,97208.10
2023-04-04T02:25:25.946Z,97208.09
2023-04-04T02:27:53.927Z,97210.14
2023-04-04T02:30:21.892Z,97208.61
2023-04-04T02:32:50.502Z,97206.77
2023-04-04T02:35:20.182Z,97209.64
2023-04-04T02:37:48.476Z,97212.08
2023-04-04T02:40:25.766Z,97208.55
2023-04-04T02:42:53.610Z,97204.11
2023-04-04T02:45:21.802Z,97205.56
2023-04-04T02:47:56.298Z,97205.27
2023-04-04T02:50:27.771Z,97206.02
2023-04-04T02:53:02.280Z,97206.00
2023-04-04T02:55:32.101Z,97207.39
2023-04-04T02:58:01.991Z,97210.77
2023-04-04T03:00:30.503Z,97212.71
2023-04-04T03:02:58.711Z,97208.63
2023-04-04T03:05:32.789Z,97210.67
2023-04-04T03:08:01.162Z,97212.83
2023-04-04T03:10:32.622Z,97211.36
2023-04-04T03:13:00.695Z,97209.60
2023-04-04T03:15:30.618Z,97210.11
2023-04-04T03:18:00.283Z,97204.92
2023-04-04T03:20:29.422Z,97207.38
2023-04-04T03:22:58.644Z,97204.08
2023-04-04T03:25:27.604Z,97201.67
2023-04-04T03:27:55.783Z,97198.48
2023-04-04T03:30:27.542Z,97195.59
2023-04-04T03:32:56.132Z,97200.98
2023-04-04T03:35:24.154Z,97199.93
2023-04-04T03:37:52.164Z,97199.80
2023-04-04T03:40:20.133Z,97199.83
2023-04-04T03:42:48.109Z,97201.83
2023-04-04T03:45:19.344Z,97202.95
2023-04-04T03:47:47.453Z,97206.63
2023-04-04T03:50:15.726Z,97212.71
2023-04-04T03:52:48.489Z,97212.64
2023-04-04T03:55:16.546Z,97215.70
2023-04-04T03:57:44.828Z,97215.09
2023-04-04T04:00:14.143Z,97213.36
2023-04-04T04:02:42.156Z,97217.51
2023-04-04T04:05:10.892Z,97215.96
2023-04-04T04:07:38.745Z,97212.31
2023-04-04T04:10:07.048Z,97211.44
2023-04-04T04:12:34.897Z,97209.76
2023-04-04T04:15:02.867Z,97210.17
2023-04-04T04:17:32.904Z,97212.99
2023-04-04T04:20:01.468Z,97208.79
2023-04-04T04:22:36.390Z,97209.08
2023-04-04T04:25:05.750Z,97210.05
2023-04-04T04:27:34.283Z,97209.80
2023-04-04T04:30:02.369Z,97209.14
2023-04-04T04:32:34.757Z,97209.71
2023-04-04T04:35:03.307Z,97208.16
2023-04-04T04:37:32.310Z,97212.90
2023-04-04T04:40:02.126Z,97214.18
2023-04-04T04:42:47.183Z,97211.52
2023-04-04T04:45:18.028Z,97211.91
2023-04-04T04:47:50.022Z,97214.43
2023-04-04T04:50:19.193Z,97209.75
2023-04-04T04:52:52.889Z,97212.52
2023-04-04T04:55:20.937Z,97211.92
2023-04-04T04:57:56.000Z,97209.59
2023-04-04T05:00:25.710Z,97212.23
2023-04-04T05:02:55.161Z,97212.02
2023-04-04T05:05:28.917Z,97211.73
2023-04-04T05:08:03.512Z,97209.34
2023-04-04T05:10:31.916Z,97205.69
2023-04-04T05:13:01.028Z,97201.42
2023-04-04T05:15:31.667Z,97202.29
2023-04-04T05:18:00.109Z,97201.49
2023-04-04T05:20:28.621Z,97201.54
2023-04-04T05:22:56.988Z,97199.91
2023-04-04T05:25:32.941Z,97199.46
2023-04-04T05:28:04.104Z,97196.31
2023-04-04T05:30:32.988Z,97197.38
2023-04-04T05:33:11.930Z,97203.44
2023-04-04T05:35:41.907Z,97205.25
2023-04-04T05:38:10.315Z,97207.63
2023-04-04T05:40:39.058Z,97208.16
2023-04-04T05:43:10.674Z,97208.10
2023-04-04T05:46:00.899Z,97210.63
2023-04-04T05:48:29.318Z,97207.29
2023-04-04T05:50:57.709Z,97209.46
2023-04-04T05:53:35.801Z,97206.58
2023-04-04T05:56:04.401Z,97211.91
2023-04-04T05:58:34.301Z,97209.95
2023-04-04T06:01:07.088Z,97213.90
2023-04-04T06:03:35.237Z,97215.77
2023-04-04T06:06:04.838Z,97215.44
2023-04-04T06:08:50.264Z,97215.66
2023-04-04T06:11:24.265Z,97213.02
2023-04-04T06:13:55.344Z,97216.20
2023-04-04T06:16:24.861Z,97219.48
2023-04-04T06:18:52.977Z,97218.60
2023-04-04T06:21:21.168Z,97218.74
2023-04-04T06:23:49.121Z,97221.61
2023-04-04T06:26:17.685Z,97226.83
2023-04-04T06:28:48.391Z,97224.14
2023-04-04T06:31:17.883Z,97222.14
2023-04-04T06:33:46.585Z,97222.88
2023-04-04T06:36:15.102Z,97223.41
2023-04-04T06:38:43.089Z,97222.86
2023-04-04T06:41:17.605Z,97225.43
2023-04-04T06:43:48.782Z,97225.89
2023-04-04T06:46:16.866Z,97226.17
2023-04-04T06:48:45.198Z,97224.97
2023-04-04T06:51:13.061Z,97225.35
2023-04-04T06:53:45.450Z,97230.21
2023-04-04T06:56:13.819Z,97230.11
2023-04-04T06:58:42.298Z,97235.22
2023-04-04T07:01:10.577Z,97237.80
2023-04-04T07:03:38.544Z,97240.98
2023-04-04T07:06:06.723Z,97244.33
2023-04-04T07:08:36.668Z,97247.92
2023-04-04T07:11:06.594Z,97250.89
2023-04-04T07:13:35.475Z,97250.30
2023-04-04T07:16:03.832Z,97256.14
2023-04-04T07:18:32.267Z,97251.54
2023-04-04T07:21:00.995Z,97251.72
2023-04-04T07:23:28.964Z,97251.88
2023-04-04T07:25:57.244Z,97255.54
2023-04-04T07:28:25.216Z,97257.31
2023-04-04T07:30:53.180Z,97252.36
2023-04-04T07:33:21.365Z,97245.98
2023-04-04T07:35:49.232Z,97244.61
2023-04-04T07:38:17.796Z,97244.19
2023-04-04T07:40:45.648Z,97242.05
2023-04-04T07:43:13.636Z,97241.96
2023-04-04T07:45:42.564Z,97243.42
2023-04-04T07:48:10.800Z,97237.08
2023-04-04T07:50:39.013Z,97236.63
2023-04-04T07:53:07.553Z,97237.48
2023-04-04T07:55:35.658Z,97232.90
2023-04-04T07:58:03.601Z,97233.41
2023-04-04T08:00:31.509Z,97230.73
2023-04-04T08:02:59.763Z,97232.73
2023-04-04T08:05:28.011Z,97230.48
2023-04-04T08:07:55.802Z,97229.60
2023-04-04T08:10:23.751Z,97228.73
2023-04-04T08:12:51.685Z,97229.58
2023-04-04T08:15:19.589Z,97230.16
2023-04-04T08:17:47.731Z,97229.77
2023-04-04T08:20:16.191Z,97227.78
2023-04-04T08:22:44.153Z,97217.38
2023-04-04T08:25:12.385Z,97218.40
2023-04-04T08:27:41.260Z,97218.33
2023-04-04T08:30:09.500Z,97219.81
2023-04-04T08:32:37.424Z,97219.48
2023-04-04T08:35:06.206Z,97214.16
2023-04-04T08:37:35.915Z,97214.37
2023-04-04T08:40:04.501Z,97215.38
2023-04-04T08:42:36.736Z,97211.59
2023-04-04T08:45:05.447Z,97212.08
2023-04-04T08:47:35.807Z,97215.09
2023-04-04T08:50:05.799Z,97221.27
2023-04-04T08:52:34.909Z,97223.03
2023-04-04T08:55:04.812Z,97222.61
2023-04-04T08:57:33.927Z,97225.34
2023-04-04T09:00:06.294Z,97220.80
2023-04-04T09:02:37.393Z,97218.50
2023-04-04T09:05:07.375Z,97213.61
2023-04-04T09:07:38.566Z,97215.77
2023-04-04T09:10:13.009Z,97215.96
2023-04-04T09:12:43.127Z,97214.20
2023-04-04T09:15:11.817Z,97216.41
2023-04-04T09:17:40.058Z,97217.38
2023-04-04T09:20:28.418Z,97215.82
2023-04-04T09:22:56.532Z,97215.34
2023-04-04T09:25:24.302Z,97217.21
2023-04-04T09:27:56.772Z,97220.27
2023-04-04T09:30:25.563Z,97222.34
2023-04-04T09:32:53.779Z,97222.69
2023-04-04T09:35:22.112Z,97220.65
2023-04-04T09:37:52.387Z,97221.35
2023-04-04T09:40:20.526Z,97219.67
2023-04-04T09:42:48.878Z,97221.77
2023-04-04T09:45:29.731Z,97224.44
2023-04-04T09:48:00.523Z,97220.91
2023-04-04T09:50:30.463Z,97221.23
2023-04-04T09:52:59.694Z,97228.92
2023-04-04T09:55:35.247Z,97225.46
2023-04-04T09:58:16.521Z,97225.28
2023-04-04T10:00:48.614Z,97227.39
2023-04-04T10:03:17.158Z,97227.80
2023-04-04T10:05:47.010Z,97225.95
2023-04-04T10:08:18.765Z,97225.57
2023-04-04T10:11:02.641Z,97226.52
2023-04-04T10:13:41.254Z,97218.41
2023-04-04T10:16:10.901Z,97216.51
2023-04-04T10:18:39.829Z,97214.80
2023-04-04T10:21:15.648Z,97213.45
2023-04-04T10:23:47.886Z,97209.73
2023-04-04T10:26:16.210Z,97208.59
2023-04-04T10:28:44.418Z,97211.62
2023-04-04T10:31:23.776Z,97216.30
2023-04-04T10:34:11.671Z,97213.48
2023-04-04T10:36:50.316Z,97208.91
2023-04-04T10:39:18.747Z,97210.61
2023-04-04T10:41:50.616Z,97210.94
2023-04-04T10:44:30.195Z,97209.05
2023-04-04T10:47:00.070Z,97212.78
2023-04-04T10:49:29.980Z,97215.61
2023-04-04T10:51:58.046Z,97211.77
2023-04-04T10:54:27.971Z,97213.15
2023-04-04T10:57:00.885Z,97211.65
2023-04-04T10:59:28.919Z,97210.41
2023-04-04T11:01:58.281Z,97212.67
2023-04-04T11:04:35.184Z,97213.26
2023-04-04T11:07:06.537Z,97211.61
2023-04-04T11:09:54.741Z,97211.80
2023-04-04T11:12:30.687Z,97212.96
2023-04-04T11:14:59.243Z,97215.60
2023-04-04T11:17:43.618Z,97212.33
2023-04-04T11:20:14.880Z,97211.02
2023-04-04T11:22:43.892Z,97211.48
2023-04-04T11:25:33.107Z,97212.40
2023-04-04T11:28:05.175Z,97209.37
2023-04-04T11:30:37.851Z,97208.95
2023-04-04T11:33:08.184Z,97203.38
2023-04-04T11:35:38.740Z,97205.48
2023-04-04T11:38:13.423Z,97205.36
2023-04-04T11:40:42.943Z,97212.66
2023-04-04T11:43:12.235Z,97210.75
2023-04-04T11:45:46.883Z,97208.10
2023-04-04T11:48:16.364Z,97207.73
2023-04-04T11:50:45.862Z,97210.74
2023-04-04T11:53:13.834Z,97209.52
2023-04-04T11:55:43.017Z,97216.55
2023-04-04T11:58:13.024Z,97218.63
2023-04-04T12:00:41.649Z,97220.14
2023-04-04T12:03:12.340Z,97219.91
2023-04-04T12:05:43.388Z,97220.70
2023-04-04T12:08:12.621Z,97224.45
2023-04-04T12:10:41.227Z,97224.08
2023-04-04T12:13:09.876Z,97225.56
2023-04-04T12:15:38.380Z,97229.00
2023-04-04T12:18:07.399Z,97228.30
2023-04-04T12:20:39.691Z,97228.41
2023-04-04T12:23:07.698Z,97230.62
2023-04-04T12:25:39.266Z,97232.97
2023-04-04T12:28:08.261Z,97232.61
2023-04-04T12:30:36.415Z,97236.73
2023-04-04T12:33:05.201Z,97242.54
2023-04-04T12:35:33.107Z,97243.91
2023-04-04T12:38:01.764Z,97242.64
2023-04-04T12:40:31.874Z,97247.42
2023-04-04T12:43:01.288Z,97252.55
2023-04-04T12:45:29.970Z,97255.48
2023-04-04T12:48:00.836Z,97258.06
2023-04-04T12:50:29.181Z,97260.90
2023-04-04T12:55:50.415Z,97264.37
2023-04-04T12:58:19.691Z,97267.39
2023-04-04T13:00:48.674Z,97270.91
2023-04-04T13:03:17.309Z,97270.89
2023-04-04T13:05:46.584Z,97275.13
2023-04-04T13:08:15.579Z,97277.41
2023-04-04T13:10:57.061Z,97275.64
2023-04-04T13:13:35.579Z,97279.55
2023-04-04T13:16:04.887Z,97277.86
2023-04-04T13:18:35.107Z,97278.63
2023-04-04T13:21:03.048Z,97280.96
2023-04-04T13:23:31.762Z,97287.32
2023-04-04T13:25:59.963Z,97286.83
2023-04-04T13:28:27.907Z,97292.14
2023-04-04T13:30:55.926Z,97295.21
2023-04-04T13:33:23.844Z,97296.71
2023-04-04T13:35:51.818Z,97297.91
2023-04-04T13:38:19.795Z,97301.16
2023-04-04T13:40:47.633Z,97300.48
2023-04-04T13:43:15.845Z,97300.41
2023-04-04T13:45:44.310Z,97302.01
2023-04-04T13:48:13.401Z,97304.66
2023-04-04T13:50:44.180Z,97306.94
2023-04-04T13:53:12.112Z,97306.92
2023-04-04T13:55:41.793Z,97306.77
2023-04-04T13:58:20.747Z,97309.20
2023-04-04T14:00:49.204Z,97313.27
2023-04-04T14:03:17.970Z,97313.19
2023-04-04T14:05:46.551Z,97316.17
2023-04-04T14:08:14.875Z,97316.27
2023-04-04T14:10:42.846Z,97315.36
2023-04-04T14:13:10.920Z,97317.75
2023-04-04T14:15:40.538Z,97318.98
2023-04-04T14:18:08.680Z,97320.65
2023-04-04T14:20:38.136Z,97321.13
2023-04-04T14:23:06.175Z,97325.13
2023-04-04T14:25:34.469Z,97325.89
2023-04-04T14:28:02.415Z,97327.21
2023-04-04T14:30:30.705Z,97330.59
2023-04-04T14:32:58.568Z,97331.57
2023-04-04T14:35:26.647Z,97332.48
2023-04-04T14:37:55.328Z,97333.01
2023-04-04T14:40:24.016Z,97330.50
2023-04-04T14:42:52.176Z,97333.39
2023-04-04T14:45:20.249Z,97332.22
2023-04-04T14:47:48.184Z,97334.06
2023-04-04T14:50:16.157Z,97335.40
2023-04-04T14:52:44.062Z,97336.74
2023-04-04T14:55:12.462Z,97336.09
2023-04-04T14:57:56.926Z,97338.20
2023-04-04T15:00:25.487Z,97341.12
2023-04-04T15:02:53.636Z,97341.13
2023-04-04T15:05:21.985Z,97340.11
2023-04-04T15:07:50.407Z,97341.65
2023-04-04T15:10:18.399Z,97343.92
2023-04-04T15:12:46.350Z,97346.66
2023-04-04T15:15:14.723Z,97341.65
2023-04-04T15:17:42.817Z,97342.29
2023-04-04T15:20:11.184Z,97343.74
2023-04-04T15:22:40.874Z,97342.24
2023-04-04T15:25:09.482Z,97341.77
2023-04-04T15:27:37.650Z,97342.42
2023-04-04T15:30:05.731Z,97340.56
2023-04-04T15:32:33.595Z,97341.85
2023-04-04T15:35:03.906Z,97344.58
2023-04-04T15:37:32.090Z,97349.06
2023-04-04T15:40:00.069Z,97350.65
2023-04-04T15:42:29.129Z,97351.60
2023-04-04T15:44:57.416Z,97354.20
2023-04-04T15:47:25.410Z,97355.20
2023-04-04T15:49:53.251Z,97352.56
2023-04-04T15:52:21.130Z,97352.24
2023-04-04T15:54:49.125Z,97353.23
2023-04-04T15:57:17.033Z,97356.87
2023-04-04T15:59:48.217Z,97358.73
2023-04-04T16:02:16.524Z,97362.06
2023-04-04T16:04:44.390Z,97360.06
2023-04-04T16:07:12.423Z,97358.11
2023-04-04T16:09:40.353Z,97358.87
2023-04-04T16:12:08.268Z,97360.34
2023-04-04T16:14:36.290Z,97363.08
2023-04-04T16:17:04.296Z,97363.56
2023-04-04T16:19:32.270Z,97363.55
2023-04-04T16:22:00.325Z,97361.88
2023-04-04T16:24:28.207Z,97363.79
2023-04-04T16:26:56.480Z,97364.30
2023-04-04T16:29:24.561Z,97362.99
2023-04-04T16:31:52.967Z,97360.27
2023-04-04T16:34:21.013Z,97359.70
2023-04-04T16:36:48.891Z,97360.89
2023-04-04T16:39:17.252Z,97357.61
2023-04-04T16:41:45.221Z,97359.14
2023-04-04T16:44:13.503Z,97356.95
2023-04-04T16:46:41.520Z,97357.67
2023-04-04T16:49:10.174Z,97359.27
2023-04-04T16:51:38.224Z,97358.81
2023-04-04T16:54:06.445Z,97358.65
2023-04-04T16:56:34.353Z,97357.08
2023-04-04T16:59:02.283Z,97362.79
2023-04-04T17:01:31.895Z,97362.56
2023-04-04T17:04:00.048Z,97362.94
2023-04-04T17:06:28.099Z,97363.47
2023-04-04T17:08:56.055Z,97363.77
2023-04-04T17:11:24.021Z,97366.64
2023-04-04T17:13:51.990Z,97369.61
2023-04-04T17:16:20.250Z,97367.98
2023-04-04T17:18:48.281Z,97368.36
2023-04-04T17:21:16.718Z,97365.57
2023-04-04T17:23:44.565Z,97367.75
2023-04-04T17:26:12.659Z,97371.93
2023-04-04T17:28:41.580Z,97374.42
2023-04-04T17:31:09.524Z,97376.90
2023-04-04T17:33:37.585Z,97377.85
2023-04-04T17:36:06.072Z,97379.76
2023-04-04T17:38:36.409Z,97382.27
2023-04-04T17:41:04.494Z,97382.82
2023-04-04T17:43:32.444Z,97382.77
2023-04-04T17:46:02.900Z,97382.57
2023-04-04T17:48:32.686Z,97385.58
2023-04-04T17:51:00.671Z,97382.55
2023-04-04T17:53:28.520Z,97385.23
2023-04-04T17:55:56.838Z,97386.92
2023-04-04T17:58:26.013Z,97388.88
2023-04-04T18:00:56.463Z,97391.46
2023-04-04T18:03:24.599Z,97394.14
2023-04-04T18:05:52.968Z,97395.67
2023-04-04T18:08:21.858Z,97391.75
2023-04-04T18:10:51.057Z,97394.71
2023-04-04T18:13:19.129Z,97396.11
2023-04-04T18:15:47.142Z,97397.94
2023-04-04T18:18:15.114Z,97401.47
2023-04-04T18:20:44.139Z,97400.09
2023-04-04T18:23:12.544Z,97401.98
2023-04-04T18:25:43.184Z,97400.30
2023-04-04T18:28:10.957Z,97399.19
2023-04-04T18:30:42.208Z,97399.63
2023-04-04T18:33:11.495Z,97398.14
2023-04-04T18:35:39.892Z,97400.91
2023-04-04T18:38:07.936Z,97399.59
2023-04-04T18:40:36.312Z,97398.45
2023-04-04T18:43:04.355Z,97402.27
2023-04-04T18:45:39.546Z,97402.73
2023-04-04T18:48:08.829Z,97398.27
2023-04-04T18:50:37.306Z,97401.84
2023-04-04T18:53:05.327Z,97400.38
2023-04-04T18:55:33.462Z,97401.30
2023-04-04T18:58:01.297Z,97400.80
2023-04-04T19:00:29.392Z,97405.66
2023-04-04T19:02:57.791Z,97403.31
2023-04-04T19:05:26.251Z,97402.41
2023-04-04T19:07:56.888Z,97403.50
2023-04-04T19:10:24.689Z,97403.04
2023-04-04T19:12:52.547Z,97406.84
2023-04-04T19:15:20.689Z,97404.90
2023-04-04T19:17:48.706Z,97404.44
2023-04-04T19:20:16.844Z,97406.49
2023-04-04T19:22:44.810Z,97407.55
2023-04-04T19:25:12.774Z,97407.88
2023-04-04T19:27:40.819Z,97408.58
2023-04-04T19:30:12.306Z,97408.22
2023-04-04T19:32:40.803Z,97411.34
2023-04-04T19:35:20.139Z,97407.65
2023-04-04T19:37:48.192Z,97409.98
2023-04-04T19:40:16.545Z,97411.56
2023-04-04T19:42:44.380Z,97412.83
2023-04-04T19:45:13.636Z,97413.20
2023-04-04T19:47:41.758Z,97413.95
2023-04-04T19:50:29.840Z,97413.23
2023-04-04T19:52:57.741Z,97413.52
2023-04-04T19:55:38.311Z,97413.64
2023-04-04T19:58:06.717Z,97411.86
2023-04-04T20:00:34.636Z,97409.44
2023-04-04T20:03:07.381Z,97410.05
2023-04-04T20:05:35.780Z,97412.09
2023-04-04T20:08:06.516Z,97412.55
2023-04-04T20:10:39.114Z,97411.48
2023-04-04T20:13:07.762Z,97418.53
2023-04-04T20:15:44.771Z,97417.18
2023-04-04T20:18:33.433Z,97414.11
2023-04-04T20:21:01.385Z,97413.31
2023-04-04T20:23:31.457Z,97415.80
2023-04-04T20:26:07.506Z,97416.17
2023-04-04T20:28:36.135Z,97416.02
2023-04-04T20:31:06.474Z,97415.38
2023-04-04T20:33:36.485Z,97415.73
2023-04-04T20:36:08.927Z,97415.92
2023-04-04T20:38:38.072Z,97413.00
2023-04-04T20:41:13.346Z,97414.67
2023-04-04T20:43:44.367Z,97410.55
2023-04-04T20:46:12.537Z,97412.77
2023-04-04T20:48:41.102Z,97414.20
2023-04-04T20:51:29.462Z,97415.41
2023-04-04T20:54:01.721Z,97413.55
2023-04-04T20:56:38.181Z,97413.14
2023-04-04T20:59:24.606Z,97415.21
2023-04-04T21:01:52.927Z,97419.52
2023-04-04T21:04:25.616Z,97416.41
2023-04-04T21:06:53.599Z,97413.36
2023-04-04T21:09:21.606Z,97410.98
2023-04-04T21:11:49.554Z,97412.04
2023-04-04T21:14:30.833Z,97414.40
2023-04-04T21:16:58.728Z,97416.19
2023-04-04T21:19:26.541Z,97418.38
2023-04-04T21:21:54.440Z,97414.08
2023-04-04T21:24:22.710Z,97415.71
2023-04-04T21:26:51.563Z,97413.73
2023-04-04T21:29:22.344Z,97411.14
2023-04-04T21:31:51.766Z,97412.22
2023-04-04T21:34:21.451Z,97415.40
2023-04-04T21:36:50.351Z,97414.94
2023-04-04T21:39:30.778Z,97411.67
2023-04-04T21:41:59.961Z,97409.73
2023-04-04T21:44:28.183Z,97409.93
2023-04-04T21:46:56.286Z,97410.69
2023-04-04T21:49:25.396Z,97414.02
2023-04-04T21:51:53.511Z,97414.27
2023-04-04T21:54:23.253Z,97411.96
2023-04-04T21:56:51.249Z,97412.91
2023-04-04T21:59:19.255Z,97410.91
2023-04-04T22:01:47.236Z,97408.52
2023-04-04T22:04:15.563Z,97411.05
2023-04-04T22:06:43.978Z,97408.40
2023-04-04T22:09:12.161Z,97409.48
2023-04-04T22:11:42.597Z,97407.60
2023-04-04T22:14:10.571Z,97411.64
2023-04-04T22:16:43.149Z,97413.20
2023-04-04T22:19:12.018Z,97414.30
2023-04-04T22:21:48.276Z,97411.14
2023-04-04T22:24:18.533Z,97414.45
2023-04-04T22:26:46.923Z,97414.41
2023-04-04T22:29:14.838Z,97412.16
2023-04-04T22:31:42.878Z,97416.73
2023-04-04T22:34:11.890Z,97418.98
2023-04-04T22:36:42.274Z,97418.05
2023-04-04T22:39:10.129Z,97418.66
2023-04-04T22:41:38.713Z,97422.94
2023-04-04T22:44:06.580Z,97423.62
2023-04-04T22:46:34.958Z,97425.79
2023-04-04T22:49:06.971Z,97428.09
2023-04-04T22:51:44.159Z,97430.65
2023-04-04T22:54:14.544Z,97432.70
2023-04-04T22:56:43.016Z,97432.74
2023-04-04T22:59:11.432Z,97433.88
2023-04-04T23:01:39.656Z,97432.61
2023-04-04T23:04:07.779Z,97430.75
2023-04-04T23:06:36.310Z,97431.34
2023-04-04T23:09:04.386Z,97427.87
2023-04-04T23:11:32.380Z,97430.00
2023-04-04T23:14:00.671Z,97426.83
2023-04-04T23:16:28.953Z,97427.04
2023-04-04T23:18:57.307Z,97428.08
2023-04-04T23:21:25.375Z,97428.52
2023-04-04T23:23:53.361Z,97425.80
2023-04-04T23:26:21.305Z,97425.70
2023-04-04T23:28:50.003Z,97423.02
2023-04-04T23:31:17.878Z,97423.73
2023-04-04T23:33:46.149Z,97420.67
2023-04-04T23:36:15.769Z,97416.55
2023-04-04T23:38:44.025Z,97417.59
2023-04-04T23:41:12.189Z,97413.35
2023-04-04T23:43:42.905Z,97413.09
2023-04-04T23:46:14.486Z,97411.95
2023-04-04T23:48:42.658Z,97414.74
2023-04-04T23:51:11.045Z,97417.50
2023-04-04T23:53:39.525Z,97412.73
2023-04-04T23:56:07.804Z,97410.83
2023-04-04T23:58:36.686Z,97409.45
